Time;durP1;ratioP1;P1;durP2;ratioP2;P2;SDS_P1;SDS_P2;PMS_P1;PMS_P2;Temp;Humidity;BMP_temperature;BMP_pressure;BME280_temperature;BME280_humidity;BME280_pressure;Samples;Min_cycle;Max_cycle;Signal;HPM_P1;HPM_P2
2022/10/02 00:00:06;;;;;;;30.85;19.23;;;;;;;14.48;100.00;93605.23;1591514;90;20999;-59
2022/10/02 00:02:56;;;;;;;26.33;17.67;;;;;;;14.43;100.00;93608.10;1591333;90;21291;-59
2022/10/02 00:05:51;;;;;;;31.52;20.48;;;;;;;14.33;100.00;93601.91;1589980;90;20986;-59
2022/10/02 00:08:25;;;;;;;35.43;22.75;;;;;;;14.24;100.00;93606.91;1591420;90;21006;-60
2022/10/02 00:11:22;;;;;;;23.38;15.75;;;;;;;14.16;100.00;93605.89;1591432;90;20999;-59
2022/10/02 00:13:57;;;;;;;20.60;14.60;;;;;;;14.14;100.00;93601.45;1591550;90;21523;-60
2022/10/02 00:16:40;;;;;;;17.27;13.68;;;;;;;14.12;100.00;93596.41;1591750;90;21150;-59
2022/10/02 00:19:18;;;;;;;16.12;11.97;;;;;;;14.15;100.00;93591.90;1591426;90;21095;-58
2022/10/02 00:22:20;;;;;;;16.27;12.03;;;;;;;14.17;100.00;93595.69;1591568;90;21037;-58
2022/10/02 00:24:59;;;;;;;14.28;10.53;;;;;;;14.18;100.00;93592.31;1591608;90;21066;-58
2022/10/02 00:27:44;;;;;;;19.95;14.07;;;;;;;14.18;100.00;93595.81;1591610;90;21510;-58
2022/10/02 00:30:15;;;;;;;20.05;14.07;;;;;;;14.13;100.00;93588.84;1591739;88;21196;-59
2022/10/02 00:33:19;;;;;;;20.35;15.30;;;;;;;14.10;100.00;93585.09;1591496;90;21521;-58
2022/10/02 00:36:04;;;;;;;26.30;16.62;;;;;;;14.09;100.00;93598.02;1607281;89;21095;-60
2022/10/02 00:38:40;;;;;;;26.57;16.82;;;;;;;14.11;100.00;93589.97;1607514;89;20996;-59
2022/10/02 00:41:22;;;;;;;18.32;12.40;;;;;;;14.12;100.00;93590.10;1606849;88;21076;-59
2022/10/02 00:44:29;;;;;;;18.12;14.13;;;;;;;14.17;100.00;93596.33;1607357;89;21516;-59
2022/10/02 00:47:14;;;;;;;15.05;11.05;;;;;;;14.24;100.00;93603.53;1607035;89;21055;-59
2022/10/02 00:49:50;;;;;;;14.68;11.18;;;;;;;14.25;100.00;93600.89;1597867;89;21160;-58
2022/10/02 00:52:25;;;;;;;12.18;8.35;;;;;;;14.25;100.00;93592.59;1607200;89;21503;-59
2022/10/02 00:55:21;;;;;;;10.98;8.60;;;;;;;14.30;100.00;93607.06;1619853;87;20994;-59
2022/10/02 00:57:54;;;;;;;15.75;10.05;;;;;;;14.33;100.00;93607.44;1619912;87;21941;-58
2022/10/02 01:00:22;;;;;;;14.80;9.90;;;;;;;14.30;100.00;93611.21;1619799;88;20978;-59
2022/10/02 01:03:00;;;;;;;15.25;8.88;;;;;;;14.27;100.00;93611.44;1620006;88;20978;-58
2022/10/02 01:05:29;;;;;;;13.72;7.67;;;;;;;14.26;100.00;93613.47;1619840;88;21025;-59
2022/10/02 01:07:58;;;;;;;20.95;8.45;;;;;;;14.28;100.00;93607.42;1619900;88;21037;-59
2022/10/02 01:10:25;;;;;;;13.98;8.85;;;;;;;14.30;100.00;93604.30;1619882;88;21268;-58
2022/10/02 01:12:55;;;;;;;14.10;8.80;;;;;;;14.34;100.00;93602.03;1619790;88;20994;-60
2022/10/02 01:15:32;;;;;;;15.15;8.30;;;;;;;14.40;100.00;93602.80;1576024;88;21446;-59
2022/10/02 01:18:01;;;;;;;11.53;8.00;;;;;;;14.46;100.00;93604.33;1619938;88;21422;-60
2022/10/02 01:20:36;;;;;;;12.00;8.75;;;;;;;14.51;100.00;93595.92;1620219;88;21589;-60
2022/10/02 01:23:18;;;;;;;15.78;10.35;;;;;;;14.52;100.00;93594.66;1619894;87;21162;-59
2022/10/02 01:25:45;;;;;;;13.75;9.50;;;;;;;14.52;100.00;93611.27;1620042;88;21513;-58
2022/10/02 01:28:12;;;;;;;15.72;8.90;;;;;;;14.56;100.00;93603.47;1619824;88;20975;-59
2022/10/02 01:30:42;;;;;;;17.62;10.95;;;;;;;14.55;100.00;93601.96;1619891;88;21454;-58
2022/10/02 01:33:10;;;;;;;12.70;8.60;;;;;;;14.50;100.00;93606.25;1619891;88;21519;-59
2022/10/02 01:35:38;;;;;;;15.08;9.20;;;;;;;14.48;100.00;93618.42;1614949;87;21192;-59
2022/10/02 01:38:12;;;;;;;14.20;8.75;;;;;;;14.49;100.00;93613.66;1615991;87;21136;-59
2022/10/02 01:40:40;;;;;;;13.80;8.95;;;;;;;14.44;100.00;93611.00;1638365;87;21533;-59
2022/10/02 01:43:13;;;;;;;15.63;9.53;;;;;;;14.39;100.00;93615.13;1616458;87;21558;-60
2022/10/02 01:46:13;;;;;;;17.37;9.80;;;;;;;14.38;100.00;93617.02;1638764;87;21031;-58
2022/10/02 01:48:46;;;;;;;13.93;9.33;;;;;;;14.40;100.00;93609.72;1638319;87;21273;-59
2022/10/02 01:51:50;;;;;;;;;;;;;;;14.45;100.00;93608.36;1641169;87;21001;-59
2022/10/02 01:54:25;;;;;;;19.42;9.78;;;;;;;14.53;100.00;93613.55;1637877;86;20444;-58
2022/10/02 01:57:16;;;;;;;12.40;7.47;;;;;;;14.60;100.00;93618.59;1622030;88;20994;-59
2022/10/02 02:00:23;;;;;;;16.85;9.60;;;;;;;14.61;100.00;93633.94;1632769;88;21007;-59
2022/10/02 02:03:23;;;;;;;11.73;6.87;;;;;;;14.49;100.00;93642.08;1633653;88;21256;-59
2022/10/02 02:05:59;;;;;;;12.73;7.80;;;;;;;14.41;100.00;93640.92;1633130;88;21018;-59
2022/10/02 02:09:05;;;;;;;11.57;7.90;;;;;;;14.25;100.00;93655.45;1633506;87;21062;-59
2022/10/02 02:11:34;;;;;;;16.37;8.00;;;;;;;14.22;100.00;93655.06;1633183;88;21034;-59
2022/10/02 02:14:17;;;;;;;14.87;8.13;;;;;;;14.22;100.00;93661.98;1633471;87;21010;-58
2022/10/02 02:16:51;;;;;;;10.68;8.15;;;;;;;14.20;100.00;93658.95;1633187;88;21809;-59
2022/10/02 02:19:33;;;;;;;20.05;9.00;;;;;;;14.17;100.00;93658.56;1633417;87;21029;-59
2022/10/02 02:22:21;;;;;;;14.23;9.33;;;;;;;14.16;100.00;93655.03;1633724;88;21434;-59
2022/10/02 02:24:57;;;;;;;15.20;9.80;;;;;;;14.16;100.00;93657.05;1633151;88;21114;-60
2022/10/02 02:27:27;;;;;;;18.67;9.60;;;;;;;14.18;100.00;93651.14;1633175;88;21073;-59
2022/10/02 02:29:59;;;;;;;17.62;9.80;;;;;;;14.23;100.00;93655.19;1633378;87;21458;-59
2022/10/02 02:32:29;;;;;;;15.57;9.60;;;;;;;14.27;100.00;93658.47;1633313;88;21070;-60
2022/10/02 02:35:04;;;;;;;11.78;8.30;;;;;;;14.27;100.00;93653.70;1629239;87;21034;-59
2022/10/02 02:37:34;;;;;;;13.05;8.55;;;;;;;14.26;100.00;93654.96;1625647;88;21022;-59
2022/10/02 02:40:06;;;;;;;14.00;7.12;;;;;;;14.25;100.00;93660.98;1625749;88;21006;-59
2022/10/02 02:42:37;;;;;;;10.60;6.40;;;;;;;14.25;100.00;93661.75;1625885;88;21101;-58
2022/10/02 02:45:22;;;;;;;5.97;5.12;;;;;;;14.28;100.00;93672.44;1625881;88;21597;-59
2022/10/02 02:47:53;;;;;;;7.37;4.20;;;;;;;14.23;100.00;93668.41;1625635;88;21486;-59
2022/10/02 02:50:30;;;;;;;5.97;3.37;;;;;;;14.11;100.00;93665.42;1625697;88;21010;-58
2022/10/02 02:53:19;;;;;;;4.72;2.70;;;;;;;13.99;100.00;93682.45;1624861;87;21074;-59
2022/10/02 02:55:55;;;;;;;4.03;2.17;;;;;;;13.83;100.00;93681.73;1625597;88;21279;-58
2022/10/02 02:58:42;;;;;;;2.47;2.20;;;;;;;13.71;100.00;93675.37;1625567;88;20975;-60
2022/10/02 03:01:10;;;;;;;3.08;2.17;;;;;;;13.55;99.14;93679.38;1625783;88;21002;-59
2022/10/02 03:03:39;;;;;;;5.15;2.65;;;;;;;13.37;99.13;93680.52;1625587;88;21051;-60
2022/10/02 03:06:25;;;;;;;2.00;1.90;;;;;;;13.32;99.39;93681.85;1625769;88;21523;-58
2022/10/02 03:08:52;;;;;;;2.35;2.15;;;;;;;13.24;98.80;93673.89;1625538;88;21270;-58
2022/10/02 03:12:06;;;;;;;3.77;2.72;;;;;;;13.14;97.81;93682.20;1625217;88;20974;-58
2022/10/02 03:15:07;;;;;;;2.80;2.50;;;;;;;12.99;96.79;93682.32;1625525;87;21086;-59
2022/10/02 03:18:04;;;;;;;13.35;2.25;;;;;;;12.75;96.62;93693.46;1592964;88;21121;-59
2022/10/02 03:21:14;;;;;;;2.05;1.95;;;;;;;12.60;96.56;93694.94;1625449;88;21010;-59
2022/10/02 03:23:59;;;;;;;3.37;2.33;;;;;;;12.49;97.06;93695.41;1625455;88;21146;-59
2022/10/02 03:26:38;;;;;;;1.80;1.70;;;;;;;12.49;97.48;93702.95;1625545;88;21529;-59
2022/10/02 03:29:20;;;;;;;2.00;1.90;;;;;;;12.43;97.22;93700.12;1625747;87;21490;-59
2022/10/02 03:31:48;;;;;;;2.10;1.90;;;;;;;12.34;96.94;93703.03;1625512;88;21494;-59
2022/10/02 03:34:16;;;;;;;2.00;1.90;;;;;;;12.26;97.06;93695.02;1626167;87;21626;-59
2022/10/02 03:36:44;;;;;;;6.62;5.75;;;;;;;12.17;97.22;93703.45;1627869;88;21130;-59
2022/10/02 03:39:11;;;;;;;2.77;2.50;;;;;;;12.16;98.21;93710.80;1606518;88;21467;-59
2022/10/02 03:41:38;;;;;;;2.52;2.33;;;;;;;12.17;98.27;93715.84;1630368;88;21073;-59
2022/10/02 03:44:06;;;;;;;3.17;2.37;;;;;;;12.19;98.37;93718.88;1628042;88;21533;-59
2022/10/02 03:46:33;;;;;;;6.28;2.10;;;;;;;12.18;98.04;93729.77;1630308;88;21006;-59
2022/10/02 03:49:01;;;;;;;3.50;2.02;;;;;;;12.17;98.13;93727.48;1630399;88;21156;-59
2022/10/02 03:51:29;;;;;;;3.70;2.00;;;;;;;12.17;98.31;93729.64;1630266;88;21030;-58
2022/10/02 03:53:56;;;;;;;3.50;3.20;;;;;;;12.15;97.95;93743.15;1630281;86;21030;-58
2022/10/02 03:56:35;;;;;;;2.47;2.27;;;;;;;12.14;97.89;93743.62;1630397;88;21462;-59
2022/10/02 03:59:04;;;;;;;7.75;2.35;;;;;;;12.19;98.03;93747.83;1630634;88;21438;-58
2022/10/02 04:01:35;;;;;;;4.20;2.08;;;;;;;12.24;97.93;93744.38;1630674;88;21139;-59
2022/10/02 04:04:18;;;;;;;2.40;2.30;;;;;;;12.27;97.66;93747.55;1630408;88;21030;-59
2022/10/02 04:06:57;;;;;;;3.00;2.70;;;;;;;12.31;97.76;93757.78;1630474;88;21070;-60
2022/10/02 04:09:53;;;;;;;4.30;2.90;;;;;;;12.36;97.08;93769.50;1630455;88;21080;-58
2022/10/02 04:12:40;;;;;;;2.25;2.08;;;;;;;12.34;96.79;93768.45;1630726;88;21479;-59
2022/10/02 04:15:31;;;;;;;5.00;2.62;;;;;;;12.30;97.15;93761.75;1630537;86;21782;-59
2022/10/02 04:18:16;;;;;;;4.42;2.95;;;;;;;12.33;97.49;93771.84;1630343;88;21014;-59
2022/10/02 04:20:53;;;;;;;4.05;3.65;;;;;;;12.28;96.64;93773.89;1630530;88;21458;-59
2022/10/02 04:23:31;;;;;;;1.82;1.72;;;;;;;12.14;96.16;93778.85;1630843;88;20982;-59
2022/10/02 04:26:19;;;;;;;1.70;1.60;;;;;;;12.02;93.16;93779.92;1630563;88;21529;-58
2022/10/02 04:28:51;;;;;;;1.70;1.60;;;;;;;11.97;91.46;93776.47;1630431;88;21175;-59
2022/10/02 04:31:19;;;;;;;2.00;1.90;;;;;;;11.97;91.09;93805.41;1630722;87;21014;-59
2022/10/02 04:33:47;;;;;;;1.60;1.50;;;;;;;12.00;89.88;93810.57;1606848;88;21077;-59
2022/10/02 04:36:41;;;;;;;1.50;1.50;;;;;;;11.97;88.50;93808.17;1626635;87;21109;-59
2022/10/02 04:39:45;;;;;;;1.75;1.65;;;;;;;11.98;86.48;93822.09;1625621;88;20978;-59
2022/10/02 04:42:36;;;;;;;1.67;1.57;;;;;;;11.98;81.24;93804.78;1625621;88;21263;-59
2022/10/02 04:45:35;;;;;;;1.72;1.62;;;;;;;12.01;80.08;93819.75;1625254;88;20970;-59
2022/10/02 04:48:40;;;;;;;1.75;1.62;;;;;;;11.95;80.08;93817.54;1625707;88;20986;-59
2022/10/02 04:51:16;;;;;;;2.35;1.60;;;;;;;11.90;80.00;93829.22;1625501;88;21034;-58
2022/10/02 04:53:51;;;;;;;1.77;1.67;;;;;;;11.82;80.55;93840.50;1625277;87;20971;-58
2022/10/02 04:56:39;;;;;;;1.60;1.50;;;;;;;11.74;81.39;93848.99;1614700;88;21180;-57
2022/10/02 04:59:27;;;;;;;1.50;1.50;;;;;;;11.67;80.69;93863.16;1655806;85;21017;-60
2022/10/02 05:02:15;;;;;;;1.60;1.60;;;;;;;11.57;81.46;93857.59;1655729;86;21029;-58
2022/10/02 05:05:04;;;;;;;1.92;1.82;;;;;;;11.44;82.17;93863.98;1655486;86;21024;-61
2022/10/02 05:07:57;;;;;;;3.05;2.85;;;;;;;11.32;81.82;93872.52;1656139;86;20972;-60
2022/10/02 05:10:39;;;;;;;1.60;1.60;;;;;;;11.23;82.12;93872.58;1655661;86;21804;-59
2022/10/02 05:13:45;;;;;;;2.35;2.25;;;;;;;11.17;79.83;93888.98;1655632;85;21029;-59
2022/10/02 05:16:17;;;;;;;3.00;2.00;;;;;;;11.16;78.91;93883.97;1655867;85;21449;-59
2022/10/02 05:19:09;;;;;;;4.08;2.22;;;;;;;11.15;77.93;93895.58;1655334;86;21047;-61
2022/10/02 05:22:01;;;;;;;1.82;1.72;;;;;;;11.12;77.52;93897.91;1656066;86;21076;-60
2022/10/02 05:25:01;;;;;;;3.10;2.30;;;;;;;11.13;76.38;93895.92;1656074;86;21115;-60
2022/10/02 05:27:54;;;;;;;2.00;1.90;;;;;;;11.18;76.31;93896.02;1655010;86;21004;-60
2022/10/02 05:30:22;;;;;;;3.55;1.70;;;;;;;11.24;75.84;93914.02;1672058;85;20993;-59
2022/10/02 05:33:28;;;;;;;34.78;20.65;;;;;;;11.34;75.42;93918.98;1660293;85;21078;-58
2022/10/02 05:36:16;;;;;;;7.67;6.05;;;;;;;11.42;75.04;93922.91;1658195;85;20973;-60
2022/10/02 05:39:06;;;;;;;2.25;2.15;;;;;;;11.52;74.00;93922.95;1660797;85;21226;-61
2022/10/02 05:41:52;;;;;;;2.80;2.50;;;;;;;11.56;73.95;93917.30;1660770;86;21013;-60
2022/10/02 05:44:36;;;;;;;2.77;2.58;;;;;;;11.55;74.54;93922.00;1660980;86;21491;-59
2022/10/02 05:47:17;;;;;;;8.33;6.37;;;;;;;11.55;73.96;93920.63;1660736;86;21376;-59
2022/10/02 05:49:53;;;;;;;7.85;5.50;;;;;;;11.56;74.06;93931.82;1636182;86;21123;-59
2022/10/02 05:52:48;;;;;;;6.12;3.52;;;;;;;11.55;74.90;93920.63;1661507;86;21133;-62
2022/10/02 05:55:35;;;;;;;3.67;2.65;;;;;;;11.55;74.93;93946.80;1660704;86;21055;-60
2022/10/02 05:58:32;;;;;;;3.52;3.22;;;;;;;11.59;74.84;93933.66;1593401;88;21572;-58
2022/10/02 06:01:16;;;;;;;4.00;3.20;;;;;;;11.62;74.10;93942.34;1619668;88;21474;-59
2022/10/02 06:03:51;;;;;;;2.30;2.17;;;;;;;11.67;74.32;93932.03;1619996;88;20997;-60
2022/10/02 06:06:40;;;;;;;3.17;2.87;;;;;;;11.73;74.50;93943.91;1619550;88;21145;-59
2022/10/02 06:09:30;;;;;;;11.28;8.60;;;;;;;11.79;74.09;93946.77;1619522;88;21069;-60
2022/10/02 06:12:12;;;;;;;22.62;14.47;;;;;;;11.86;73.98;93939.52;1619662;88;21033;-59
2022/10/02 06:14:47;;;;;;;9.40;6.80;;;;;;;11.95;73.38;93943.55;1582267;88;21449;-60
2022/10/02 06:17:21;;;;;;;3.70;2.90;;;;;;;12.06;72.04;93948.64;1619271;87;21450;-59
2022/10/02 06:20:25;;;;;;;2.30;2.20;;;;;;;12.17;72.15;93944.70;1595921;88;21840;-59
2022/10/02 06:23:24;;;;;;;3.30;3.02;;;;;;;12.22;72.16;93934.98;1618842;88;20989;-58
2022/10/02 06:26:02;;;;;;;13.60;9.35;;;;;;;12.26;72.42;93930.80;1619739;88;21477;-60
2022/10/02 06:28:39;;;;;;;5.40;2.33;;;;;;;12.41;72.91;93939.07;1619524;87;21038;-59
2022/10/02 06:31:45;;;;;;;2.20;2.10;;;;;;;12.55;72.26;93934.90;1595287;88;21013;-60
2022/10/02 06:34:13;;;;;;;4.33;3.92;;;;;;;12.62;71.38;93942.77;1619524;87;21186;-60
2022/10/02 06:37:04;;;;;;;5.90;3.67;;;;;;;12.68;71.42;93947.14;1616370;87;21021;-59
2022/10/02 06:39:49;;;;;;;146.60;88.40;;;;;;;12.74;70.69;93947.22;1614491;89;20998;-60
2022/10/02 06:42:51;;;;;;;24.92;19.67;;;;;;;12.77;70.34;93937.38;1655455;86;21017;-61
2022/10/02 06:45:39;;;;;;;11.45;9.43;;;;;;;12.83;70.85;93945.70;1651855;86;21080;-60
2022/10/02 06:48:38;;;;;;;7.97;6.30;;;;;;;12.95;71.47;93956.48;1655693;86;22172;-60
2022/10/02 06:51:30;;;;;;;5.47;4.90;;;;;;;13.15;71.27;93963.41;1655599;86;20986;-64
2022/10/02 06:54:49;;;;;;;3.42;2.42;;;;;;;13.36;70.59;93963.55;1650848;85;21081;-60
2022/10/02 06:57:37;;;;;;;3.95;3.10;;;;;;;13.49;69.94;93964.58;1655788;86;21077;-59
2022/10/02 07:00:11;;;;;;;6.30;5.67;;;;;;;13.56;69.31;93972.44;1629195;86;21643;-61
2022/10/02 07:03:05;;;;;;;5.58;4.85;;;;;;;13.61;68.81;93975.91;1655564;86;21206;-60
2022/10/02 07:05:55;;;;;;;4.53;3.17;;;;;;;13.64;68.56;93980.47;1623621;86;21006;-61
2022/10/02 07:09:01;;;;;;;3.85;2.85;;;;;;;13.72;68.68;93976.02;1655797;86;20985;-61
2022/10/02 07:11:53;;;;;;;2.98;2.70;;;;;;;13.85;68.04;93977.81;1655724;86;21037;-61
2022/10/02 07:14:50;;;;;;;4.33;3.72;;;;;;;13.96;67.85;93990.39;1643153;86;21544;-61
2022/10/02 07:17:56;;;;;;;5.47;4.95;;;;;;;13.94;68.23;93992.85;1649018;86;21174;-60
2022/10/02 07:20:46;;;;;;;4.00;3.17;;;;;;;13.97;67.17;94007.11;1655681;86;21461;-61
2022/10/02 07:23:52;;;;;;;13.25;11.75;;;;;;;13.94;66.83;94009.45;1655625;86;21029;-60
2022/10/02 07:26:47;;;;;;;11.97;10.75;;;;;;;13.86;67.22;94015.27;1655126;86;20997;-62
2022/10/02 07:29:23;;;;;;;3.33;3.12;;;;;;;13.75;66.28;94008.22;1655657;86;21068;-60
2022/10/02 07:32:21;;;;;;;7.10;6.37;;;;;;;13.69;65.75;94021.23;1655880;85;21638;-63
2022/10/02 07:35:29;;;;;;;9.88;8.98;;;;;;;13.64;66.58;94019.91;1655814;86;21068;-59
2022/10/02 07:38:06;;;;;;;6.22;4.05;;;;;;;13.68;67.29;94022.47;1655764;86;21052;-58
2022/10/02 07:40:39;;;;;;;2.77;2.58;;;;;;;13.70;67.86;94024.13;1655820;86;20978;-60
2022/10/02 07:43:30;;;;;;;2.33;2.12;;;;;;;13.73;67.95;94029.45;1655804;86;21076;-61
2022/10/02 07:46:24;;;;;;;2.58;2.35;;;;;;;13.75;68.05;94030.34;1655509;86;21372;-60
2022/10/02 07:49:12;;;;;;;5.28;4.42;;;;;;;13.78;68.97;94026.63;1655736;86;21025;-61
2022/10/02 07:52:01;;;;;;;4.85;2.30;;;;;;;13.84;69.49;94019.15;1636066;86;21014;-59
2022/10/02 07:54:55;;;;;;;3.33;2.62;;;;;;;13.89;68.89;94019.22;1652333;85;21037;-60
2022/10/02 07:57:43;;;;;;;2.98;1.82;;;;;;;13.94;68.39;94020.50;1655841;85;20977;-60
2022/10/02 08:00:18;;;;;;;4.80;2.00;;;;;;;13.96;67.67;94019.42;1656079;86;21251;-60
2022/10/02 08:03:02;;;;;;;7.15;2.50;;;;;;;14.01;67.92;94009.03;1655892;86;21548;-63
2022/10/02 08:05:48;;;;;;;2.98;2.62;;;;;;;14.10;67.59;94011.63;1655826;85;21016;-61
2022/10/02 08:08:38;;;;;;;5.53;4.08;;;;;;;14.19;66.24;94011.52;1655759;86;21089;-62
2022/10/02 08:11:11;;;;;;;3.47;2.30;;;;;;;14.22;66.56;94001.60;1650971;86;21141;-62
2022/10/02 08:13:46;;;;;;;3.05;2.72;;;;;;;14.28;65.65;94006.59;1656334;86;21124;-60
2022/10/02 08:16:14;;;;;;;2.80;2.40;;;;;;;14.28;65.71;94000.28;1655500;86;21012;-61
2022/10/02 08:18:47;;;;;;;3.60;3.30;;;;;;;14.32;65.81;94007.76;1655761;86;21004;-61
2022/10/02 08:21:18;;;;;;;4.42;2.75;;;;;;;14.37;65.88;94002.90;1655787;86;21477;-59
2022/10/02 08:23:56;;;;;;;7.10;5.92;;;;;;;14.40;64.86;93998.51;1656158;86;21600;-62
2022/10/02 08:26:48;;;;;;;4.97;3.62;;;;;;;14.42;64.64;94002.18;1655950;86;21073;-61
2022/10/02 08:29:46;;;;;;;7.15;3.83;;;;;;;14.43;64.55;94002.31;1629641;86;21076;-61
2022/10/02 08:32:14;;;;;;;4.58;3.58;;;;;;;14.45;64.51;93999.20;1653500;86;21516;-61
2022/10/02 08:34:43;;;;;;;2.00;1.90;;;;;;;14.43;64.26;93999.68;1630222;86;21077;-60
2022/10/02 08:37:15;;;;;;;5.05;3.35;;;;;;;14.37;63.95;94003.64;1658724;86;20981;-61
2022/10/02 08:40:10;;;;;;;;;;;;;;;14.40;64.92;94000.53;1663226;86;21141;-60
2022/10/02 08:42:54;;;;;;;4.17;3.08;;;;;;;14.41;64.53;94000.66;1660786;85;20493;-59
2022/10/02 08:46:09;;;;;;;6.72;5.17;;;;;;;14.38;65.13;93992.70;1660548;86;20978;-60
2022/10/02 08:49:12;;;;;;;18.62;14.23;;;;;;;14.36;65.17;93993.08;1660545;86;21576;-60
2022/10/02 08:52:26;;;;;;;6.05;5.20;;;;;;;14.32;64.63;93988.39;1651378;86;21012;-62
2022/10/02 08:55:23;;;;;;;4.00;3.15;;;;;;;14.37;64.74;93990.44;1660654;85;21170;-61
2022/10/02 08:58:13;;;;;;;7.40;4.12;;;;;;;14.50;65.65;93986.03;1660782;86;21009;-60
2022/10/02 09:01:02;;;;;;;7.87;5.95;;;;;;;14.65;64.41;93987.41;1660770;86;20984;-60
2022/10/02 09:04:11;;;;;;;8.90;2.80;;;;;;;14.74;63.40;93987.24;1644593;86;21131;-61
2022/10/02 09:07:02;;;;;;;3.62;1.42;;;;;;;14.79;63.83;93982.36;1660697;86;21025;-65
2022/10/02 09:10:25;;;;;;;8.25;5.87;;;;;;;14.80;62.78;93985.27;1631629;86;21229;-62
2022/10/02 09:13:31;;;;;;;9.73;8.78;;;;;;;14.77;63.49;93993.17;1635552;86;20964;-63
2022/10/02 09:16:25;;;;;;;4.72;2.00;;;;;;;14.70;63.56;93995.02;1660230;85;21056;-62
2022/10/02 09:19:28;;;;;;;5.37;4.87;;;;;;;14.71;63.52;93991.00;1660579;85;21021;-61
2022/10/02 09:22:01;;;;;;;;;;;;;;;14.97;63.98;93987.53;1662735;85;21064;-62
2022/10/02 09:25:01;;;;;;;5.75;5.17;;;;;;;15.25;61.75;93991.86;1661105;85;21128;-60
2022/10/02 09:27:52;;;;;;;1.80;1.70;;;;;;;15.30;60.75;93990.55;1660766;85;21056;-59
2022/10/02 09:30:49;;;;;;;5.10;1.75;;;;;;;15.28;61.56;93992.25;1660889;86;21025;-60
2022/10/02 09:33:53;;;;;;;3.80;2.05;;;;;;;15.29;61.15;93990.41;1660837;86;21025;-61
2022/10/02 09:37:07;;;;;;;7.40;3.47;;;;;;;15.36;60.19;93996.13;1660894;85;21469;-61
2022/10/02 09:40:10;;;;;;;12.03;9.15;;;;;;;15.32;60.45;94006.69;1636966;86;21167;-60
2022/10/02 09:43:19;;;;;;;1.25;1.17;;;;;;;15.19;61.04;93998.75;1660755;85;21016;-60
2022/10/02 09:46:13;;;;;;;10.30;3.42;;;;;;;15.08;60.30;94009.78;1660772;85;21013;-60
2022/10/02 09:49:07;;;;;;;3.95;3.00;;;;;;;15.12;60.60;94010.30;1660999;86;21429;-60
2022/10/02 09:51:58;;;;;;;6.05;4.87;;;;;;;15.41;59.77;94007.25;1661019;86;21065;-60
2022/10/02 09:54:52;;;;;;;3.05;2.37;;;;;;;15.93;58.51;94012.64;1660760;85;21748;-60
2022/10/02 09:57:48;;;;;;;3.55;2.00;;;;;;;16.23;57.46;94008.81;1660663;86;21488;-58
2022/10/02 10:00:53;;;;;;;2.77;1.50;;;;;;;16.30;56.59;94010.48;1660865;86;21528;-60
2022/10/02 10:03:58;;;;;;;2.30;1.50;;;;;;;16.23;56.19;94008.20;1660601;86;21012;-59
2022/10/02 10:06:31;;;;;;;8.15;2.22;;;;;;;16.14;56.38;94004.28;1660732;86;21052;-60
2022/10/02 10:09:47;;;;;;;1.82;1.40;;;;;;;16.05;57.21;94003.10;1660827;86;21448;-59
2022/10/02 10:12:53;;;;;;;3.77;1.32;;;;;;;16.14;56.64;94012.61;1660525;85;21060;-60
2022/10/02 10:15:44;;;;;;;3.35;2.55;;;;;;;16.16;56.15;94009.31;1660528;86;21012;-60
2022/10/02 10:18:56;;;;;;;2.40;2.20;;;;;;;16.10;54.32;94012.06;1661119;86;20997;-60
2022/10/02 10:22:05;;;;;;;2.95;2.62;;;;;;;16.02;54.64;94002.72;1644175;86;20996;-60
2022/10/02 10:25:21;;;;;;;3.12;1.47;;;;;;;16.06;54.43;94008.78;1660889;86;21191;-61
2022/10/02 10:27:54;;;;;;;6.28;1.55;;;;;;;16.18;53.86;94006.80;1660672;86;21028;-62
2022/10/02 10:31:04;;;;;;;2.70;2.47;;;;;;;16.20;53.76;94016.77;1660768;86;20980;-61
2022/10/02 10:33:55;;;;;;;1.40;1.30;;;;;;;16.16;53.12;94014.86;1660793;86;21009;-63
2022/10/02 10:40:17;;;;;;;2.27;1.90;;;;;;;15.74;54.71;94015.71;1660824;86;21153;-60
2022/10/02 10:43:00;;;;;;;2.08;1.87;;;;;;;15.57;55.54;94019.03;1660569;86;20973;-60
2022/10/02 10:45:55;;;;;;;;;;;;;;;15.43;56.74;94024.14;1662665;86;21121;-60
2022/10/02 10:48:44;;;;;;;1.50;1.40;;;;;;;15.28;57.70;94027.67;1593788;90;20601;-59
2022/10/02 10:51:28;;;;;;;3.05;2.83;;;;;;;15.10;58.58;94028.05;1593563;90;20999;-59
2022/10/02 10:54:21;;;;;;;;;;;;;;;14.92;60.24;94027.03;1636929;85;21288;-60
2022/10/02 10:57:03;;;;;;;3.50;3.20;;;;;;;14.77;61.49;94031.95;1660749;86;20166;-60
2022/10/02 11:00:02;;;;;;;4.08;3.67;;;;;;;14.67;62.18;94022.28;1660932;85;21479;-61
2022/10/02 11:02:42;;;;;;;7.00;6.40;;;;;;;14.63;62.51;94023.77;1660822;86;21036;-61
2022/10/02 11:05:41;;;;;;;8.30;7.50;;;;;;;14.59;62.07;94018.45;1660775;86;20985;-59
2022/10/02 11:08:38;;;;;;;10.90;9.00;;;;;;;14.58;62.08;94010.01;1660994;86;21271;-59
2022/10/02 11:11:19;;;;;;;12.05;10.55;;;;;;;14.61;62.71;94011.80;1660951;85;21061;-61
2022/10/02 11:13:58;;;;;;;5.42;4.92;;;;;;;14.71;62.81;94006.84;1660909;86;21561;-60
2022/10/02 11:17:21;;;;;;;8.40;7.37;;;;;;;14.75;63.14;94008.14;1636058;86;21107;-62
2022/10/02 11:20:15;;;;;;;9.53;5.00;;;;;;;14.77;62.77;94006.25;1660711;86;21036;-59
2022/10/02 11:23:16;;;;;;;5.15;4.03;;;;;;;14.82;63.55;93993.84;1643200;86;21119;-60
2022/10/02 11:26:06;;;;;;;7.35;6.65;;;;;;;14.87;63.78;94001.45;1660878;86;21366;-60
2022/10/02 11:29:16;;;;;;;5.90;4.50;;;;;;;14.89;63.86;93996.17;1661025;86;21473;-60
2022/10/02 11:32:08;;;;;;;11.05;6.92;;;;;;;14.93;62.25;93993.16;1659823;86;20973;-60
2022/10/02 11:35:22;;;;;;;2.00;1.90;;;;;;;14.86;60.80;93999.94;1660265;86;21052;-58
2022/10/02 11:38:21;;;;;;;4.42;3.72;;;;;;;14.82;60.57;94009.06;1658717;85;21803;-61
2022/10/02 11:41:00;;;;;;;5.58;4.42;;;;;;;14.74;59.43;94008.01;1655781;86;20997;-60
2022/10/02 11:44:23;;;;;;;4.58;4.15;;;;;;;14.74;60.59;94002.47;1655861;86;21057;-60
2022/10/02 11:47:00;;;;;;;4.47;3.83;;;;;;;14.81;60.63;93998.50;1656314;85;21014;-60
2022/10/02 11:50:00;;;;;;;4.80;3.77;;;;;;;14.96;60.14;93999.12;1655838;86;21052;-60
2022/10/02 11:52:54;;;;;;;6.05;5.45;;;;;;;15.13;59.87;94004.13;1655893;86;21266;-60
2022/10/02 11:56:09;;;;;;;3.27;2.72;;;;;;;15.42;58.71;93990.75;1656062;86;20965;-60
2022/10/02 11:59:27;;;;;;;4.78;3.67;;;;;;;15.75;57.71;93995.04;1655792;86;20989;-61
2022/10/02 12:02:26;;;;;;;2.02;1.82;;;;;;;15.95;56.21;94002.44;1646055;86;20981;-61
2022/10/02 12:05:12;;;;;;;4.67;3.42;;;;;;;15.83;55.64;94004.42;1656001;86;21009;-61
2022/10/02 12:08:09;;;;;;;2.85;2.05;;;;;;;15.67;54.96;94003.72;1655891;85;21224;-59
2022/10/02 12:10:52;;;;;;;2.70;2.00;;;;;;;15.55;55.44;94013.23;1656054;85;21524;-61
2022/10/02 12:14:01;;;;;;;22.02;15.70;;;;;;;15.47;55.27;94008.03;1656087;86;20965;-60
2022/10/02 12:17:09;;;;;;;8.13;6.90;;;;;;;15.43;55.44;94019.98;1655851;85;21492;-60
2022/10/02 12:29:11;;;;;;;5.72;2.02;;;;;;;15.00;56.97;94018.39;1655855;85;21579;-60
2022/10/02 12:32:00;;;;;;;2.20;2.10;;;;;;;14.84;57.55;94025.95;1655645;86;21057;-61
2022/10/02 12:34:47;;;;;;;2.83;2.37;;;;;;;14.72;57.55;94025.74;1604135;86;21076;-60
2022/10/02 12:37:31;;;;;;;8.00;2.87;;;;;;;14.61;57.48;94025.64;1695081;83;21265;-59
2022/10/02 12:40:19;;;;;;;2.30;2.12;;;;;;;14.50;58.40;94029.70;1686799;84;21075;-59
2022/10/02 12:43:16;;;;;;;5.62;5.10;;;;;;;14.53;59.19;94028.72;1686804;83;21038;-63
2022/10/02 12:46:19;;;;;;;4.55;3.98;;;;;;;14.57;59.69;94025.10;1686709;83;20996;-64
2022/10/02 12:49:14;;;;;;;3.02;2.83;;;;;;;14.62;59.96;94025.77;1663861;85;21108;-59
2022/10/02 12:52:05;;;;;;;4.08;2.50;;;;;;;15.19;59.85;94029.88;1661905;86;21345;-60
2022/10/02 12:55:01;;;;;;;3.25;2.00;;;;;;;16.19;56.83;94028.51;1663176;86;21026;-58
2022/10/02 12:57:51;;;;;;;1.60;1.50;;;;;;;16.88;55.17;94013.76;1663531;86;21055;-60
2022/10/02 13:00:44;;;;;;;3.05;1.40;;;;;;;17.87;51.91;94030.30;1646351;87;20994;-60
2022/10/02 13:03:21;;;;;;;;;;;;;;;18.23;50.10;94022.30;1665409;86;21026;-60
2022/10/02 13:06:09;;;;;;;2.17;1.20;;;;;;;18.35;49.32;94018.86;1663664;86;21147;-62
2022/10/02 13:09:15;;;;;;;1.20;1.10;;;;;;;18.17;48.44;94018.03;1646374;87;21042;-61
2022/10/02 13:12:03;;;;;;;1.70;1.20;;;;;;;17.62;48.97;94025.83;1663483;85;20989;-61
2022/10/02 13:14:49;;;;;;;10.05;9.10;;;;;;;17.08;50.38;94034.34;1646551;87;20994;-60